RIX weather

Riga International Airport
Riga, Riga (city), Latvia

Public forecast

Using degrees Celsius for public forecast. Weather courtesy of forecast.io.

Current aviation weather report (METAR) for Riga International Airport

Retrieved 2020/06/04 18:20 UTC (17 minutes ago):

EVRA 041820Z 34005KT CAVOK 14/11 Q1000 NOSIG

Aviation forecast (TAF) for Riga International Airport

Retrieved 2020/06/04 18:03 UTC (34 minutes ago):

TAF EVRA 041700Z 0418/0518 33005KT 9999 SCT030 TEMPO 0419/0421 3000 BR BKN005 TEMPO 0421/0506 0600 FG VV001 BECMG 0506/0508 15007KT